createdAt,value
2018-03-28T00:00:00.120Z,98011.97
2018-03-28T00:02:27.625Z,98011.09
2018-03-28T00:04:55.111Z,98012.91
2018-03-28T00:07:22.611Z,98015.77
2018-03-28T00:09:50.099Z,98017.98
2018-03-28T00:12:17.608Z,98015.09
2018-03-28T00:14:45.094Z,98010.55
2018-03-28T00:17:12.603Z,98009.14
2018-03-28T00:19:40.088Z,98006.63
2018-03-28T00:22:07.599Z,98005.09
2018-03-28T00:24:35.108Z,98015.25
2018-03-28T00:27:02.615Z,98018.66
2018-03-28T00:29:30.124Z,98008.28
2018-03-28T00:31:57.635Z,98016.17
2018-03-28T00:34:25.130Z,98014.11
2018-03-28T00:36:52.631Z,98008.84
2018-03-28T00:39:20.144Z,98015.74
2018-03-28T00:41:47.620Z,98022.42
2018-03-28T00:44:15.131Z,98023.06
2018-03-28T00:46:42.622Z,98024.09
2018-03-28T00:49:10.132Z,98020.39
2018-03-28T00:51:37.614Z,98022.73
2018-03-28T00:54:05.119Z,98016.16
2018-03-28T00:56:32.606Z,98017.78
2018-03-28T00:59:00.111Z,98014.15
2018-03-28T01:01:27.596Z,98009.07
2018-03-28T01:03:55.108Z,98018.38
2018-03-28T01:06:22.595Z,98012.05
2018-03-28T01:08:50.112Z,98018.86
2018-03-28T01:11:17.604Z,98019.22
2018-03-28T01:13:45.128Z,98021.95
2018-03-28T01:16:12.643Z,98019.16
2018-03-28T01:18:40.320Z,98016.48
2018-03-28T01:21:07.815Z,98015.31
2018-03-28T01:23:35.336Z,98011.91
2018-03-28T01:26:02.824Z,98013.36
2018-03-28T01:28:30.338Z,98008.67
2018-03-28T01:30:57.853Z,98005.19
2018-03-28T01:33:25.376Z,98013.05
2018-03-28T01:35:52.935Z,98007.42
2018-03-28T01:38:20.448Z,98002.75
2018-03-28T01:40:47.931Z,98004.36
2018-03-28T01:43:15.436Z,98015.10
2018-03-28T01:45:42.936Z,98016.17
2018-03-28T01:48:10.446Z,98011.44
2018-03-28T01:50:37.946Z,98005.94
2018-03-28T01:53:05.431Z,98002.94
2018-03-28T01:55:32.949Z,98005.20
2018-03-28T01:58:00.488Z,98003.36
2018-03-28T02:00:28.007Z,97997.16
2018-03-28T02:02:55.491Z,97998.15
2018-03-28T02:05:22.998Z,98002.95
2018-03-28T02:07:50.487Z,98008.41
2018-03-28T02:10:18.007Z,98006.42
2018-03-28T02:12:45.496Z,98001.30
2018-03-28T02:15:13.097Z,98005.31
2018-03-28T02:17:40.621Z,98002.14
2018-03-28T02:20:08.134Z,98006.59
2018-03-28T02:22:35.620Z,98002.86
2018-03-28T02:25:03.131Z,97998.11
2018-03-28T02:27:30.643Z,97999.44
2018-03-28T02:29:58.159Z,98000.00
2018-03-28T02:32:25.683Z,98002.56
2018-03-28T02:34:53.412Z,97998.99
2018-03-28T02:37:20.905Z,98000.38
2018-03-28T02:39:48.424Z,98001.21
2018-03-28T02:42:15.910Z,97997.83
2018-03-28T02:44:43.428Z,98000.72
2018-03-28T02:47:10.916Z,97998.62
2018-03-28T02:49:38.435Z,97997.86
2018-03-28T02:52:05.921Z,98002.06
2018-03-28T02:54:33.436Z,97992.09
2018-03-28T02:57:01.069Z,97994.79
2018-03-28T02:59:28.572Z,97997.00
2018-03-28T03:01:56.075Z,97993.89
2018-03-28T03:04:23.663Z,97995.52
2018-03-28T03:06:51.178Z,97988.55
2018-03-28T03:09:18.691Z,97991.17
2018-03-28T03:11:46.198Z,97996.98
2018-03-28T03:14:13.787Z,97990.73
2018-03-28T03:16:41.302Z,97988.30
2018-03-28T03:19:08.812Z,97988.83
2018-03-28T03:21:36.328Z,97992.64
2018-03-28T03:24:03.819Z,98001.64
2018-03-28T03:26:31.711Z,98011.54
2018-03-28T03:28:59.411Z,98000.77
2018-03-28T03:31:26.983Z,98002.98
2018-03-28T03:33:54.468Z,97999.24
2018-03-28T03:36:21.982Z,97998.75
2018-03-28T03:38:49.474Z,97999.32
2018-03-28T03:41:17.020Z,98007.84
2018-03-28T03:43:44.514Z,97996.15
2018-03-28T03:46:12.062Z,98008.73
2018-03-28T03:48:39.551Z,97999.59
2018-03-28T03:51:07.057Z,98002.98
2018-03-28T03:53:34.543Z,98003.44
2018-03-28T03:56:02.079Z,98009.07
2018-03-28T03:58:29.569Z,98010.98
2018-03-28T04:00:57.066Z,98005.00
2018-03-28T04:03:24.632Z,98017.80
2018-03-28T04:05:52.152Z,98012.23
2018-03-28T04:08:19.776Z,98012.09
2018-03-28T04:10:47.322Z,98015.17
2018-03-28T04:13:14.831Z,98009.75
2018-03-28T04:15:42.320Z,98012.72
2018-03-28T04:18:09.844Z,98017.33
2018-03-28T04:20:37.392Z,98015.67
2018-03-28T04:23:04.895Z,98020.77
2018-03-28T04:25:32.424Z,98021.73
2018-03-28T04:27:59.971Z,98024.58
2018-03-28T04:30:27.451Z,98018.94
2018-03-28T04:32:54.958Z,98018.80
2018-03-28T04:35:22.440Z,98017.52
2018-03-28T04:37:50.097Z,98020.39
2018-03-28T04:40:17.581Z,98018.87
2018-03-28T04:42:45.126Z,98016.80
2018-03-28T04:45:12.679Z,98012.42
2018-03-28T04:47:40.184Z,98012.72
2018-03-28T04:50:07.671Z,98012.05
2018-03-28T04:52:35.184Z,98012.69
2018-03-28T04:55:02.667Z,98022.97
2018-03-28T04:57:30.187Z,98020.72
2018-03-28T04:59:57.703Z,98012.22
2018-03-28T05:02:25.241Z,98015.69
2018-03-28T05:04:52.748Z,98016.16
2018-03-28T05:07:20.243Z,98025.10
2018-03-28T05:09:47.764Z,98026.09
2018-03-28T05:12:15.255Z,98032.62
2018-03-28T05:14:42.780Z,98024.19
2018-03-28T05:17:10.280Z,98019.04
2018-03-28T05:19:37.797Z,98025.05
2018-03-28T05:22:05.282Z,98020.55
2018-03-28T05:24:32.819Z,98026.53
2018-03-28T05:27:00.306Z,98030.16
2018-03-28T05:29:27.837Z,98018.59
2018-03-28T05:31:55.323Z,98022.66
2018-03-28T05:34:22.847Z,98014.15
2018-03-28T05:36:50.338Z,98011.70
2018-03-28T05:39:17.865Z,98010.34
2018-03-28T05:41:45.349Z,98013.28
2018-03-28T05:44:12.855Z,98009.43
2018-03-28T05:46:40.384Z,98008.52
2018-03-28T05:49:07.939Z,98011.32
2018-03-28T05:51:35.459Z,98014.15
2018-03-28T05:54:02.984Z,98012.53
2018-03-28T05:56:30.505Z,98011.12
2018-03-28T05:58:58.034Z,98015.97
2018-03-28T06:01:25.602Z,98020.17
2018-03-28T06:03:53.171Z,98020.34
2018-03-28T06:06:20.654Z,98013.09
2018-03-28T06:08:48.154Z,98008.33
2018-03-28T06:11:15.664Z,98015.36
2018-03-28T06:13:43.168Z,98017.81
2018-03-28T06:16:10.704Z,98016.69
2018-03-28T06:18:38.196Z,98025.69
2018-03-28T06:21:05.776Z,98014.56
2018-03-28T06:23:33.310Z,98022.97
2018-03-28T06:26:00.994Z,98004.88
2018-03-28T06:28:28.488Z,98002.36
2018-03-28T06:30:56.004Z,98006.45
2018-03-28T06:33:23.496Z,97996.31
2018-03-28T06:35:51.280Z,97996.45
2018-03-28T06:38:18.800Z,97995.06
2018-03-28T06:40:46.363Z,97989.91
2018-03-28T06:43:13.879Z,97992.95
2018-03-28T06:45:41.400Z,97992.53
2018-03-28T06:48:08.904Z,97994.63
2018-03-28T06:50:36.431Z,97981.96
2018-03-28T06:53:03.922Z,97982.38
2018-03-28T06:55:31.452Z,97970.89
2018-03-28T06:57:59.160Z,97974.48
2018-03-28T07:00:26.680Z,97970.80
2018-03-28T07:02:54.167Z,97974.05
2018-03-28T07:05:21.697Z,97970.25
2018-03-28T07:07:49.313Z,97974.31
2018-03-28T07:10:16.844Z,97973.96
2018-03-28T07:12:44.342Z,97965.84
2018-03-28T07:15:11.877Z,97968.38
2018-03-28T07:17:39.381Z,97972.64
2018-03-28T07:20:06.904Z,97966.02
2018-03-28T07:22:34.552Z,97968.58
2018-03-28T07:25:02.044Z,97970.84
2018-03-28T07:27:29.580Z,97962.51
2018-03-28T07:29:57.098Z,97960.23
2018-03-28T07:32:24.640Z,97952.92
2018-03-28T07:34:52.136Z,97948.83
2018-03-28T07:37:19.730Z,97945.88
2018-03-28T07:39:47.215Z,97942.90
2018-03-28T07:42:14.756Z,97952.16
2018-03-28T07:44:42.243Z,97948.19
2018-03-28T07:47:09.751Z,97950.55
2018-03-28T07:49:37.321Z,97946.89
2018-03-28T07:52:04.828Z,97951.34
2018-03-28T07:54:32.312Z,97964.49
2018-03-28T07:57:00.136Z,97957.19
2018-03-28T07:59:27.691Z,97957.31
2018-03-28T08:01:55.244Z,97960.22
2018-03-28T08:04:22.799Z,97957.45
2018-03-28T08:06:50.303Z,97959.17
2018-03-28T08:09:17.917Z,97950.66
2018-03-28T08:11:45.468Z,97957.55
2018-03-28T08:14:13.020Z,97950.46
2018-03-28T08:16:40.599Z,97945.63
2018-03-28T08:19:08.105Z,97954.68
2018-03-28T08:21:35.611Z,97948.33
2018-03-28T08:24:03.135Z,97953.78
2018-03-28T08:26:30.631Z,97946.83
2018-03-28T08:28:58.153Z,97951.48
2018-03-28T08:31:25.752Z,97950.34
2018-03-28T08:33:53.265Z,97938.53
2018-03-28T08:36:20.796Z,97936.86
2018-03-28T08:38:48.312Z,97933.56
2018-03-28T08:41:15.804Z,97940.78
2018-03-28T08:43:43.322Z,97939.92
2018-03-28T08:46:10.811Z,97922.81
2018-03-28T08:48:38.315Z,97927.34
2018-03-28T08:51:05.811Z,97926.16
2018-03-28T08:53:33.343Z,97916.40
2018-03-28T08:56:00.864Z,97911.69
2018-03-28T08:58:28.447Z,97905.47
2018-03-28T09:00:55.938Z,97907.52
2018-03-28T09:03:23.471Z,97909.39
2018-03-28T09:05:50.961Z,97908.92
2018-03-28T09:08:18.484Z,97899.58
2018-03-28T09:10:45.976Z,97893.78
2018-03-28T09:13:13.531Z,97895.88
2018-03-28T09:15:41.092Z,97893.95
2018-03-28T09:18:08.720Z,97887.13
2018-03-28T09:20:36.363Z,97892.13
2018-03-28T09:23:03.879Z,97887.00
2018-03-28T09:25:31.388Z,97876.08
2018-03-28T09:27:58.912Z,97880.59
2018-03-28T09:30:26.420Z,97878.37
2018-03-28T09:32:53.917Z,97885.34
2018-03-28T09:35:21.444Z,97884.06
2018-03-28T09:37:50.051Z,97876.77
2018-03-28T09:40:18.532Z,97875.85
2018-03-28T09:42:46.015Z,97865.50
2018-03-28T09:45:13.541Z,97863.41
2018-03-28T09:47:41.047Z,97867.48
2018-03-28T09:50:09.487Z,97853.74
2018-03-28T09:52:36.972Z,97844.59
2018-03-28T09:55:04.531Z,97839.52
2018-03-28T09:57:32.040Z,97839.35
2018-03-28T09:59:59.563Z,97837.00
2018-03-28T10:02:30.952Z,97839.02
2018-03-28T10:05:00.308Z,97829.47
2018-03-28T10:07:27.816Z,97819.88
2018-03-28T10:09:55.328Z,97824.00
2018-03-28T10:12:22.833Z,97822.23
2018-03-28T10:14:50.359Z,97819.36
2018-03-28T10:17:17.867Z,97822.91
2018-03-28T10:19:45.395Z,97823.95
2018-03-28T10:22:12.884Z,97817.66
2018-03-28T10:24:40.452Z,97810.95
2018-03-28T10:27:07.938Z,97803.68
2018-03-28T10:29:35.486Z,97798.23
2018-03-28T10:32:02.980Z,97790.52
2018-03-28T10:34:30.505Z,97789.80
2018-03-28T10:36:58.027Z,97780.42
2018-03-28T10:39:25.595Z,97777.30
2018-03-28T10:41:53.098Z,97777.22
2018-03-28T10:44:20.612Z,97769.61
2018-03-28T10:46:48.219Z,97767.53
2018-03-28T10:49:15.746Z,97756.81
2018-03-28T10:51:43.265Z,97754.63
2018-03-28T10:54:10.775Z,97751.78
2018-03-28T10:56:38.288Z,97753.37
2018-03-28T10:59:05.796Z,97748.62
2018-03-28T11:01:33.388Z,97741.77
2018-03-28T11:04:00.944Z,97737.02
2018-03-28T11:06:28.463Z,97736.30
2018-03-28T11:08:55.973Z,97733.66
2018-03-28T11:11:23.483Z,97731.22
2018-03-28T11:13:50.971Z,97719.94
2018-03-28T11:16:18.496Z,97726.24
2018-03-28T11:18:46.006Z,97712.00
2018-03-28T11:21:13.514Z,97707.65
2018-03-28T11:23:41.068Z,97700.50
2018-03-28T11:26:08.639Z,97696.89
2018-03-28T11:28:36.139Z,97692.37
2018-03-28T11:31:03.670Z,97690.08
2018-03-28T11:33:31.162Z,97690.00
2018-03-28T11:35:58.683Z,97681.18
2018-03-28T11:38:26.259Z,97679.20
2018-03-28T11:40:53.767Z,97676.19
2018-03-28T11:43:21.273Z,97668.02
2018-03-28T11:45:48.787Z,97670.96
2018-03-28T11:48:16.280Z,97660.49
2018-03-28T11:50:43.763Z,97657.75
2018-03-28T11:53:11.284Z,97657.38
2018-03-28T11:55:38.858Z,97651.98
2018-03-28T11:58:06.577Z,97636.15
2018-03-28T12:00:34.068Z,97638.33
2018-03-28T12:03:01.663Z,97638.88
2018-03-28T12:05:29.151Z,97633.95
2018-03-28T12:07:56.682Z,97633.25
2018-03-28T12:10:24.202Z,97627.33
2018-03-28T12:12:51.760Z,97626.33
2018-03-28T12:15:19.326Z,97620.06
2018-03-28T12:17:46.835Z,97621.14
2018-03-28T12:20:14.327Z,97632.13
2018-03-28T12:22:41.843Z,97631.27
2018-03-28T12:25:09.354Z,97619.75
2018-03-28T12:27:36.919Z,97621.44
2018-03-28T12:30:04.453Z,97617.17
2018-03-28T12:32:31.971Z,97624.42
2018-03-28T12:34:59.505Z,97624.61
2018-03-28T12:37:27.072Z,97613.03
2018-03-28T12:39:54.557Z,97605.13
2018-03-28T12:42:22.174Z,97604.20
2018-03-28T12:44:49.769Z,97598.19
2018-03-28T12:47:17.406Z,97592.96
2018-03-28T12:49:44.920Z,97597.09
2018-03-28T12:52:12.457Z,97602.22
2018-03-28T12:54:40.074Z,97592.30
2018-03-28T12:57:07.556Z,97585.73
2018-03-28T12:59:35.064Z,97584.47
2018-03-28T13:02:02.556Z,97580.23
2018-03-28T13:04:30.063Z,97572.18
2018-03-28T13:06:57.543Z,97570.33
2018-03-28T13:09:25.089Z,97564.56
2018-03-28T13:11:52.580Z,97556.28
2018-03-28T13:14:20.098Z,97550.03
2018-03-28T13:16:47.614Z,97553.36
2018-03-28T13:19:15.182Z,97549.27
2018-03-28T13:21:42.667Z,97548.43
2018-03-28T13:24:10.176Z,97539.48
2018-03-28T13:26:37.663Z,97534.91
2018-03-28T13:29:05.168Z,97533.38
2018-03-28T13:31:33.302Z,97526.56
2018-03-28T13:34:00.834Z,97521.79
2018-03-28T13:36:28.350Z,97521.71
2018-03-28T13:38:55.859Z,97517.52
2018-03-28T13:41:23.345Z,97513.77
2018-03-28T13:43:50.856Z,97514.19
2018-03-28T13:46:18.353Z,97511.75
2018-03-28T13:48:45.875Z,97514.11
2018-03-28T13:51:13.363Z,97522.09
2018-03-28T13:53:40.891Z,97518.70
2018-03-28T13:56:08.399Z,97519.11
2018-03-28T13:58:35.916Z,97511.21
2018-03-28T14:01:03.425Z,97525.40
2018-03-28T14:03:30.915Z,97514.50
2018-03-28T14:05:58.443Z,97512.14
2018-03-28T14:08:25.936Z,97522.11
2018-03-28T14:10:53.471Z,97500.73
2018-03-28T14:13:20.983Z,97499.63
2018-03-28T14:15:48.496Z,97499.74
2018-03-28T14:18:16.003Z,97491.94
2018-03-28T14:20:43.549Z,97489.75
2018-03-28T14:23:11.040Z,97486.97
2018-03-28T14:25:38.568Z,97482.97
2018-03-28T14:28:06.224Z,97480.10
2018-03-28T14:30:33.779Z,97467.70
2018-03-28T14:33:01.257Z,97463.67
2018-03-28T14:35:28.807Z,97460.50
2018-03-28T14:37:56.321Z,97454.53
2018-03-28T14:40:23.843Z,97442.38
2018-03-28T14:42:54.584Z,97441.23
2018-03-28T14:45:18.906Z,97436.75
2018-03-28T14:47:46.400Z,97428.88
2018-03-28T14:50:13.907Z,97427.00
2018-03-28T14:52:41.391Z,97423.78
2018-03-28T14:55:08.927Z,97420.25
2018-03-28T14:57:36.476Z,97416.91
2018-03-28T15:00:04.020Z,97396.61
2018-03-28T15:02:31.516Z,97396.35
2018-03-28T15:04:58.999Z,97395.16
2018-03-28T15:07:26.539Z,97387.20
2018-03-28T15:09:54.037Z,97381.16
2018-03-28T15:12:21.577Z,97375.89
2018-03-28T15:14:49.112Z,97370.53
2018-03-28T15:17:16.739Z,97357.30
2018-03-28T15:19:44.488Z,97355.97
2018-03-28T15:22:12.091Z,97342.15
2018-03-28T15:24:39.645Z,97344.93
2018-03-28T15:27:07.261Z,97340.91
2018-03-28T15:29:34.865Z,97336.03
2018-03-28T15:32:02.677Z,97339.31
2018-03-28T15:34:30.446Z,97333.36
2018-03-28T15:36:58.218Z,97328.92
2018-03-28T15:39:26.020Z,97330.66
2018-03-28T15:41:53.739Z,97334.29
2018-03-28T15:44:21.607Z,97322.48
2018-03-28T15:46:49.475Z,97313.67
2018-03-28T15:49:17.144Z,97307.48
2018-03-28T15:51:44.887Z,97304.21
2018-03-28T15:54:12.613Z,97305.79
2018-03-28T15:56:40.428Z,97302.11
2018-03-28T15:59:08.122Z,97306.71
2018-03-28T16:01:36.468Z,97304.22
2018-03-28T16:04:04.138Z,97306.71
2018-03-28T16:06:31.797Z,97307.12
2018-03-28T16:08:59.434Z,97308.88
2018-03-28T16:11:27.097Z,97305.28
2018-03-28T16:13:54.727Z,97302.86
2018-03-28T16:16:22.407Z,97293.58
2018-03-28T16:18:50.105Z,97292.31
2018-03-28T16:21:17.866Z,97290.64
2018-03-28T16:23:45.617Z,97295.01
2018-03-28T16:26:13.293Z,97283.44
2018-03-28T16:28:41.058Z,97289.46
2018-03-28T16:31:08.826Z,97288.05
2018-03-28T16:33:36.794Z,97288.48
2018-03-28T16:36:04.456Z,97290.16
2018-03-28T16:38:32.115Z,97277.80
2018-03-28T16:40:59.900Z,97284.53
2018-03-28T16:43:27.801Z,97286.12
2018-03-28T16:45:55.514Z,97286.55
2018-03-28T16:48:23.145Z,97290.55
2018-03-28T16:50:50.735Z,97291.38
2018-03-28T16:53:18.497Z,97291.06
2018-03-28T16:55:46.084Z,97285.96
2018-03-28T16:58:13.930Z,97287.63
2018-03-28T17:00:41.792Z,97293.50
2018-03-28T17:03:09.476Z,97303.95
2018-03-28T17:05:37.119Z,97311.83
2018-03-28T17:08:04.836Z,97320.26
2018-03-28T17:10:32.549Z,97315.43
2018-03-28T17:13:00.411Z,97329.05
2018-03-28T17:15:28.067Z,97316.35
2018-03-28T17:17:55.722Z,97325.05
2018-03-28T17:20:23.513Z,97322.94
2018-03-28T17:22:51.210Z,97330.57
2018-03-28T17:25:18.719Z,97328.73
2018-03-28T17:27:46.330Z,97340.11
2018-03-28T17:30:13.942Z,97334.67
2018-03-28T17:32:41.624Z,97324.39
2018-03-28T17:35:09.213Z,97321.34
2018-03-28T17:37:36.797Z,97332.81
2018-03-28T17:40:04.490Z,97337.14
2018-03-28T17:42:32.148Z,97349.33
2018-03-28T17:44:59.823Z,97357.14
2018-03-28T17:47:27.448Z,97360.45
2018-03-28T17:49:55.218Z,97365.20
2018-03-28T17:52:22.897Z,97365.92
2018-03-28T17:54:50.566Z,97374.76
2018-03-28T17:57:18.235Z,97380.53
2018-03-28T17:59:46.801Z,97381.42
2018-03-28T18:02:14.571Z,97391.27
2018-03-28T18:04:42.233Z,97391.77
2018-03-28T18:07:09.997Z,97402.36
2018-03-28T18:09:37.866Z,97401.78
2018-03-28T18:12:05.533Z,97427.41
2018-03-28T18:14:33.291Z,97426.91
2018-03-28T18:17:00.953Z,97429.02
2018-03-28T18:19:28.595Z,97434.00
2018-03-28T18:21:56.481Z,97435.36
2018-03-28T18:24:24.143Z,97439.84
2018-03-28T18:26:51.709Z,97434.98
2018-03-28T18:29:19.574Z,97440.34
2018-03-28T18:31:47.334Z,97433.92
2018-03-28T18:34:15.057Z,97436.51
2018-03-28T18:36:42.765Z,97439.81
2018-03-28T18:39:10.422Z,97438.28
2018-03-28T18:41:38.084Z,97444.05
2018-03-28T18:44:05.746Z,97443.62
2018-03-28T18:46:33.408Z,97455.86
2018-03-28T18:49:01.074Z,97451.11
2018-03-28T18:51:28.803Z,97455.75
2018-03-28T18:53:57.316Z,97456.20
2018-03-28T18:56:24.905Z,97454.78
2018-03-28T18:58:52.648Z,97461.05
2018-03-28T19:01:20.250Z,97461.27
2018-03-28T19:03:47.998Z,97462.27
2018-03-28T19:06:15.858Z,97457.45
2018-03-28T19:08:43.521Z,97452.86
2018-03-28T19:11:11.208Z,97458.73
2018-03-28T19:13:38.997Z,97454.81
2018-03-28T19:16:06.515Z,97461.86
2018-03-28T19:18:34.193Z,97461.66
2018-03-28T19:21:02.060Z,97469.85
2018-03-28T19:23:29.556Z,97465.13
2018-03-28T19:25:57.162Z,97468.94
2018-03-28T19:28:24.684Z,97463.15
2018-03-28T19:30:52.227Z,97468.34
2018-03-28T19:33:19.835Z,97477.27
2018-03-28T19:35:47.371Z,97480.11
2018-03-28T19:38:14.860Z,97478.70
2018-03-28T19:40:42.468Z,97485.18
2018-03-28T19:43:09.984Z,97479.23
2018-03-28T19:45:37.516Z,97483.23
2018-03-28T19:48:05.048Z,97490.69
2018-03-28T19:50:32.532Z,97478.11
2018-03-28T19:53:00.260Z,97482.91
2018-03-28T19:55:27.720Z,97479.55
2018-03-28T19:57:55.263Z,97480.58
2018-03-28T20:00:22.777Z,97482.64
2018-03-28T20:02:50.303Z,97484.90
2018-03-28T20:05:17.795Z,97481.00
2018-03-28T20:07:45.332Z,97478.63
2018-03-28T20:10:12.858Z,97474.70
2018-03-28T20:12:40.531Z,97476.13
2018-03-28T20:15:11.455Z,97468.05
2018-03-28T20:17:38.989Z,97470.09
2018-03-28T20:20:06.566Z,97463.46
2018-03-28T20:22:34.085Z,97468.58
2018-03-28T20:25:01.629Z,97466.09
2018-03-28T20:27:29.156Z,97467.31
2018-03-28T20:29:56.664Z,97468.86
2018-03-28T20:32:24.268Z,97461.99
2018-03-28T20:34:51.758Z,97466.14
2018-03-28T20:37:19.275Z,97465.94
2018-03-28T20:39:46.771Z,97467.08
2018-03-28T20:42:14.291Z,97459.82
2018-03-28T20:44:41.781Z,97463.69
2018-03-28T20:47:09.430Z,97465.53
2018-03-28T20:49:36.941Z,97459.59
2018-03-28T20:52:04.446Z,97461.62
2018-03-28T20:54:31.967Z,97464.30
2018-03-28T20:57:00.552Z,97463.94
2018-03-28T20:59:28.067Z,97460.77
2018-03-28T21:01:55.597Z,97460.66
2018-03-28T21:04:23.176Z,97467.99
2018-03-28T21:06:50.729Z,97473.00
2018-03-28T21:09:18.265Z,97477.01
2018-03-28T21:11:45.792Z,97488.96
2018-03-28T21:14:13.402Z,97494.83
2018-03-28T21:16:40.883Z,97506.39
2018-03-28T21:19:08.393Z,97505.67
2018-03-28T21:21:35.883Z,97508.05
2018-03-28T21:24:03.462Z,97511.46
2018-03-28T21:26:31.094Z,97510.01
2018-03-28T21:28:58.630Z,97517.14
2018-03-28T21:31:26.112Z,97516.11
2018-03-28T21:33:53.631Z,97513.41
2018-03-28T21:36:21.123Z,97509.97
2018-03-28T21:38:48.696Z,97513.64
2018-03-28T21:41:16.212Z,97514.56
2018-03-28T21:43:43.748Z,97527.06
2018-03-28T21:46:11.228Z,97524.62
2018-03-28T21:48:38.813Z,97528.20
2018-03-28T21:51:06.297Z,97529.33
2018-03-28T21:53:33.880Z,97525.54
2018-03-28T21:56:01.402Z,97534.66
2018-03-28T21:58:29.019Z,97542.73
2018-03-28T22:00:56.530Z,97546.48
2018-03-28T22:03:24.035Z,97555.23
2018-03-28T22:05:51.531Z,97552.06
2018-03-28T22:08:19.041Z,97552.83
2018-03-28T22:10:46.552Z,97563.99
2018-03-28T22:13:14.031Z,97565.74
2018-03-28T22:15:41.551Z,97566.23
2018-03-28T22:18:09.046Z,97569.41
2018-03-28T22:20:36.576Z,97577.73
2018-03-28T22:23:04.068Z,97583.19
2018-03-28T22:25:31.590Z,97592.59
2018-03-28T22:27:59.096Z,97596.51
2018-03-28T22:30:26.608Z,97602.12
2018-03-28T22:32:54.147Z,97608.56
2018-03-28T22:35:21.653Z,97617.17
2018-03-28T22:37:49.510Z,97612.50
2018-03-28T22:40:17.028Z,97613.13
2018-03-28T22:42:44.524Z,97616.11
2018-03-28T22:45:12.023Z,97612.31
2018-03-28T22:47:39.507Z,97621.30
2018-03-28T22:50:07.027Z,97621.59
2018-03-28T22:52:34.503Z,97625.85
2018-03-28T22:55:02.021Z,97637.08
2018-03-28T22:57:29.523Z,97636.66
2018-03-28T22:59:57.006Z,97648.36
2018-03-28T23:02:24.515Z,97651.38
2018-03-28T23:04:52.008Z,97652.84
2018-03-28T23:07:19.615Z,97653.82
2018-03-28T23:09:47.108Z,97661.44
2018-03-28T23:12:14.619Z,97657.96
2018-03-28T23:14:42.176Z,97673.99
2018-03-28T23:17:09.731Z,97678.47
2018-03-28T23:19:37.211Z,97675.71
2018-03-28T23:22:04.723Z,97679.67
2018-03-28T23:24:32.205Z,97682.50
2018-03-28T23:26:59.813Z,97697.75
2018-03-28T23:29:27.312Z,97685.81
2018-03-28T23:31:54.823Z,97687.03
2018-03-28T23:34:22.308Z,97686.13
2018-03-28T23:36:49.820Z,97689.81
2018-03-28T23:39:17.307Z,97678.14
2018-03-28T23:41:44.809Z,97677.98
2018-03-28T23:44:12.300Z,97674.56
2018-03-28T23:46:39.817Z,97674.91
2018-03-28T23:49:07.340Z,97672.05
2018-03-28T23:51:34.852Z,97684.14
2018-03-28T23:54:02.385Z,97693.86
2018-03-28T23:56:29.876Z,97690.48
2018-03-28T23:58:57.378Z,97694.40
